createdAt,value
2022-08-05T00:01:30.000Z,100682.97
2022-08-05T00:04:03.216Z,100649.69
2022-08-05T00:06:33.445Z,100646.06
2022-08-05T00:09:03.591Z,100692.97
2022-08-05T00:11:35.213Z,100681.44
2022-08-05T00:14:16.902Z,100641.66
2022-08-05T00:16:52.896Z,100635.03
2022-08-05T00:19:22.214Z,100698.25
2022-08-05T00:21:49.388Z,100596.84
2022-08-05T00:24:16.243Z,100605.81
2022-08-05T00:26:51.759Z,100689.66
2022-08-05T00:29:18.905Z,100622.91
2022-08-05T00:32:10.162Z,100547.53
2022-08-05T00:34:54.018Z,100646.41
2022-08-05T00:37:22.411Z,100672.84
2022-08-05T00:39:58.001Z,100682.53
2022-08-05T00:42:37.037Z,100677.31
2022-08-05T00:45:08.564Z,100600.59
2022-08-05T00:47:53.331Z,100679.53
2022-08-05T00:50:22.187Z,100678.63
2022-08-05T00:52:53.263Z,100665.59
2022-08-05T00:55:19.903Z,100643.81
2022-08-05T00:57:58.594Z,100695.25
2022-08-05T01:00:28.161Z,100623.81
2022-08-05T01:02:55.450Z,100674.34
2022-08-05T01:05:22.756Z,100614.06
2022-08-05T01:08:41.838Z,100650.78
2022-08-05T01:10:41.634Z,100670.59
2022-08-05T01:13:57.865Z,100678.00
2022-08-05T01:16:52.296Z,100578.78
2022-08-05T01:19:22.297Z,100687.16
2022-08-05T01:22:23.969Z,100680.66
2022-08-05T01:25:07.207Z,100670.72
2022-08-05T01:28:18.227Z,100686.09
2022-08-05T01:30:55.102Z,100614.38
2022-08-05T01:33:25.372Z,100697.28
2022-08-05T01:35:57.436Z,100703.13
2022-08-05T01:38:29.340Z,100738.75
2022-08-05T01:41:01.562Z,100742.53
2022-08-05T01:43:29.639Z,100762.31
2022-08-05T01:45:57.783Z,100782.06
2022-08-05T01:48:29.730Z,100773.44
2022-08-05T01:51:00.163Z,100709.88
2022-08-05T01:53:57.419Z,100661.53
2022-08-05T01:58:10.721Z,100756.22
2022-08-05T01:59:21.549Z,100788.66
2022-08-05T02:01:51.802Z,100816.31
2022-08-05T02:04:24.029Z,100808.03
2022-08-05T02:06:52.600Z,100790.34
2022-08-05T02:09:20.640Z,100802.84
2022-08-05T02:11:53.325Z,100809.38
2022-08-05T02:14:32.348Z,100806.53
2022-08-05T02:17:07.642Z,100779.72
2022-08-05T02:19:50.843Z,100738.59
2022-08-05T02:22:28.213Z,100719.91
2022-08-05T02:25:18.252Z,100768.31
2022-08-05T02:27:59.093Z,100763.19
2022-08-05T02:30:32.450Z,100749.13
2022-08-05T02:33:03.019Z,100692.25
2022-08-05T02:35:37.838Z,100676.13
2022-08-05T02:38:13.253Z,100662.09
2022-08-05T02:40:46.519Z,100617.19
2022-08-05T02:43:16.873Z,100608.00
2022-08-05T02:45:52.912Z,100612.91
2022-08-05T02:48:29.236Z,100507.25
2022-08-05T02:50:59.648Z,100533.16
2022-08-05T02:53:28.536Z,100543.81
2022-08-05T02:56:06.819Z,100544.75
2022-08-05T02:58:36.129Z,100674.44
2022-08-05T03:01:02.965Z,100695.69
2022-08-05T03:03:33.952Z,100697.81
2022-08-05T03:06:54.484Z,100656.16
2022-08-05T03:09:07.843Z,100713.97
2022-08-05T03:11:55.420Z,100668.72
2022-08-05T03:14:21.177Z,100643.63
2022-08-05T03:16:47.666Z,100664.69
2022-08-05T03:19:29.465Z,100679.03
2022-08-05T03:22:00.842Z,100694.84
2022-08-05T03:24:29.968Z,100680.50
2022-08-05T03:26:58.885Z,100698.09
2022-08-05T03:29:45.721Z,100689.38
2022-08-05T03:32:14.307Z,100680.44
2022-08-05T03:34:42.637Z,100723.22
2022-08-05T03:37:18.731Z,100711.44
2022-08-05T03:39:59.131Z,100671.06
2022-08-05T03:42:29.119Z,100630.72
2022-08-05T03:44:55.873Z,100607.75
2022-08-05T03:47:24.046Z,100600.72
2022-08-05T03:49:52.471Z,100699.34
2022-08-05T03:52:48.835Z,100570.38
2022-08-05T03:56:05.119Z,100597.13
2022-08-05T03:58:10.745Z,100637.78
2022-08-05T04:00:42.033Z,100700.44
2022-08-05T04:03:14.996Z,100670.47
2022-08-05T04:05:55.785Z,100612.84
2022-08-05T04:08:35.011Z,100637.22
2022-08-05T04:11:05.195Z,100618.38
2022-08-05T04:13:51.008Z,100647.28
2022-08-05T04:16:25.445Z,100612.47
2022-08-05T04:19:00.143Z,100654.41
2022-08-05T04:22:10.359Z,100664.84
2022-08-05T04:24:18.736Z,100643.47
2022-08-05T04:26:46.701Z,100566.53
2022-08-05T04:29:13.422Z,100492.88
2022-08-05T04:31:41.445Z,100547.00
2022-08-05T04:34:18.311Z,100678.44
2022-08-05T04:36:49.763Z,100567.31
2022-08-05T04:39:18.207Z,100657.41
2022-08-05T04:41:45.737Z,100716.78
2022-08-05T04:44:12.740Z,100616.22
2022-08-05T04:46:50.313Z,100624.94
2022-08-05T04:49:39.212Z,100502.59
2022-08-05T04:52:16.086Z,100653.16
2022-08-05T04:54:42.671Z,100664.19
2022-08-05T04:57:09.349Z,100708.03
2022-08-05T04:59:40.493Z,100637.22
2022-08-05T05:02:41.360Z,100626.06
2022-08-05T05:05:01.781Z,100613.91
2022-08-05T05:07:35.632Z,100656.53
2022-08-05T05:10:05.473Z,100742.59
2022-08-05T05:12:33.411Z,100684.34
2022-08-05T05:15:03.575Z,100673.88
2022-08-05T05:17:56.496Z,100662.44
2022-08-05T05:20:26.579Z,100698.94
2022-08-05T05:22:55.914Z,100627.88
2022-08-05T05:25:33.034Z,100744.09
2022-08-05T05:28:11.363Z,100618.16
2022-08-05T05:30:38.966Z,100741.97
2022-08-05T05:33:16.508Z,100661.84
2022-08-05T05:35:47.701Z,100739.81
2022-08-05T05:38:22.942Z,100636.97
2022-08-05T05:41:00.229Z,100738.69
2022-08-05T05:43:57.048Z,100622.91
2022-08-05T05:46:17.756Z,100640.13
2022-08-05T05:48:48.365Z,100638.00
2022-08-05T05:51:50.038Z,100755.56
2022-08-05T05:54:19.753Z,100700.00
2022-08-05T05:56:48.314Z,100654.31
2022-08-05T05:59:14.835Z,100660.91
2022-08-05T06:01:57.588Z,100637.50
2022-08-05T06:04:24.720Z,100761.13
2022-08-05T06:06:51.249Z,100741.03
2022-08-05T06:09:35.360Z,100694.16
2022-08-05T06:12:05.957Z,100711.97
2022-08-05T06:14:36.193Z,100664.22
2022-08-05T06:17:22.597Z,100727.63
2022-08-05T06:19:57.219Z,100797.44
2022-08-05T06:22:30.594Z,100794.69
2022-08-05T06:25:00.671Z,100728.06
2022-08-05T06:28:12.750Z,100674.41
2022-08-05T06:30:19.915Z,100710.75
2022-08-05T06:32:48.630Z,100817.28
2022-08-05T06:36:04.175Z,100700.13
2022-08-05T06:38:11.455Z,100794.31
2022-08-05T06:40:44.253Z,100767.03
2022-08-05T06:43:58.654Z,100772.53
2022-08-05T06:46:04.094Z,100754.06
2022-08-05T06:48:53.621Z,100745.03
2022-08-05T06:51:23.928Z,100774.44
2022-08-05T06:53:54.742Z,100741.25
2022-08-05T06:56:26.328Z,100805.00
2022-08-05T06:58:53.523Z,100706.84
2022-08-05T07:01:20.759Z,100760.56
2022-08-05T07:03:49.676Z,100847.44
2022-08-05T07:06:17.448Z,100854.72
2022-08-05T07:08:47.526Z,100678.78
2022-08-05T07:11:15.893Z,100821.63
2022-08-05T07:14:01.605Z,100833.63
2022-08-05T07:18:01.693Z,100876.63
2022-08-05T07:22:28.631Z,100871.13
2022-08-05T07:25:22.089Z,100765.75
2022-08-05T07:27:57.949Z,100918.81
2022-08-05T07:30:33.684Z,100798.09
2022-08-05T07:33:09.206Z,100806.94
2022-08-05T07:36:02.371Z,100800.59
2022-08-05T07:38:34.399Z,100813.25
2022-08-05T07:42:09.286Z,100879.34
2022-08-05T07:43:57.958Z,100777.91
2022-08-05T07:46:30.592Z,100815.56
2022-08-05T07:49:05.828Z,100815.56
2022-08-05T07:51:40.247Z,100842.47
2022-08-05T07:54:10.497Z,100904.38
2022-08-05T07:57:02.672Z,100862.88
2022-08-05T07:59:38.967Z,100791.22
2022-08-05T08:02:16.203Z,100930.75
2022-08-05T08:04:45.116Z,100883.22
2022-08-05T08:07:12.658Z,100824.44
2022-08-05T08:09:39.110Z,100799.97
2022-08-05T08:12:15.925Z,100826.44
2022-08-05T08:14:53.115Z,100710.69
2022-08-05T08:17:19.678Z,100830.50
2022-08-05T08:20:22.899Z,100841.19
2022-08-05T08:22:35.331Z,100824.16
2022-08-05T08:25:03.038Z,100807.88
2022-08-05T08:27:40.360Z,100851.94
2022-08-05T08:30:28.520Z,100860.81
2022-08-05T08:32:58.360Z,100863.53
2022-08-05T08:35:35.173Z,100889.72
2022-08-05T08:38:08.076Z,100820.00
2022-08-05T08:40:35.883Z,100900.59
2022-08-05T08:45:16.448Z,100871.63
2022-08-05T08:45:54.143Z,100987.91
2022-08-05T08:48:37.998Z,100999.94
2022-08-05T08:51:54.593Z,100937.31
2022-08-05T08:53:55.371Z,100876.09
2022-08-05T08:56:23.520Z,100925.69
2022-08-05T08:58:54.501Z,100992.91
2022-08-05T09:01:21.647Z,100898.63
2022-08-05T09:03:55.701Z,100978.28
2022-08-05T09:06:37.338Z,101016.50
2022-08-05T09:09:09.875Z,101007.97
2022-08-05T09:11:51.836Z,100936.47
2022-08-05T09:14:56.854Z,101010.63
2022-08-05T09:17:41.417Z,101014.00
2022-08-05T09:20:05.868Z,101023.94
2022-08-05T09:23:37.446Z,101044.72
2022-08-05T09:26:20.877Z,100928.75
2022-08-05T09:28:48.730Z,101025.44
2022-08-05T09:31:43.534Z,100964.25
2022-08-05T09:34:05.852Z,101024.69
2022-08-05T09:36:54.449Z,100976.50
2022-08-05T09:39:41.298Z,101052.47
2022-08-05T09:42:11.397Z,101068.03
2022-08-05T09:44:50.588Z,100933.88
2022-08-05T09:47:22.801Z,101074.66
2022-08-05T09:50:00.681Z,101075.53
2022-08-05T09:52:34.249Z,100944.84
2022-08-05T09:55:56.545Z,101081.69
2022-08-05T09:57:58.537Z,101006.91
2022-08-05T10:00:25.939Z,101015.50
2022-08-05T10:02:54.796Z,101019.69
2022-08-05T10:05:27.647Z,101073.47
2022-08-05T10:08:36.516Z,101091.34
2022-08-05T10:10:50.253Z,101050.66
2022-08-05T10:13:46.273Z,101079.16
2022-08-05T10:16:41.912Z,101102.25
2022-08-05T10:19:23.704Z,101114.03
2022-08-05T10:22:09.100Z,101059.75
2022-08-05T10:24:42.470Z,101068.56
2022-08-05T10:27:14.261Z,101075.25
2022-08-05T10:30:06.938Z,101062.66
2022-08-05T10:32:54.069Z,101102.50
2022-08-05T10:35:17.691Z,101080.88
2022-08-05T10:37:45.301Z,101112.34
2022-08-05T10:40:19.562Z,101104.44
2022-08-05T10:42:50.557Z,100919.53
2022-08-05T10:45:40.473Z,101037.47
2022-08-05T10:48:36.114Z,101115.38
2022-08-05T10:51:22.474Z,101113.09
2022-08-05T10:54:00.907Z,101099.88
2022-08-05T10:56:45.211Z,101061.47
2022-08-05T11:00:02.988Z,101070.59
2022-08-05T11:02:37.537Z,101127.63
2022-08-05T11:05:05.231Z,101018.34
2022-08-05T11:07:33.083Z,101024.34
2022-08-05T11:10:27.546Z,101122.94
2022-08-05T11:12:55.646Z,101136.38
2022-08-05T11:16:00.873Z,101012.63
2022-08-05T11:18:32.666Z,101141.88
2022-08-05T11:21:02.982Z,101139.13
2022-08-05T11:24:02.919Z,101144.94
2022-08-05T11:26:34.856Z,101111.88
2022-08-05T11:29:13.466Z,101037.47
2022-08-05T11:31:58.906Z,101027.13
2022-08-05T11:34:47.473Z,101135.59
2022-08-05T11:38:26.563Z,101134.00
2022-08-05T11:41:12.860Z,101146.50
2022-08-05T11:44:07.307Z,101110.56
2022-08-05T11:46:58.312Z,101149.34
2022-08-05T11:49:33.866Z,101137.13
2022-08-05T11:52:01.210Z,101139.09
2022-08-05T11:54:33.633Z,100961.34
2022-08-05T11:57:08.077Z,101096.63
2022-08-05T11:59:50.642Z,101051.53
2022-08-05T12:02:29.811Z,101037.97
2022-08-05T12:05:00.086Z,100990.16
2022-08-05T12:08:08.894Z,101116.19
2022-08-05T12:10:22.713Z,101030.78
2022-08-05T12:13:00.239Z,101109.94
2022-08-05T12:15:38.032Z,101129.00
2022-08-05T12:18:10.525Z,101114.56
2022-08-05T12:20:41.317Z,101130.19
2022-08-05T12:23:09.884Z,101146.63
2022-08-05T12:25:53.810Z,101096.53
2022-08-05T12:28:50.164Z,101146.19
2022-08-05T12:31:23.173Z,101131.63
2022-08-05T12:33:59.068Z,101139.66
2022-08-05T12:36:28.265Z,101151.13
2022-08-05T12:38:56.507Z,101058.63
2022-08-05T12:41:23.091Z,101164.88
2022-08-05T12:44:14.142Z,101167.09
2022-08-05T12:46:45.720Z,101175.97
2022-08-05T12:49:19.014Z,101185.13
2022-08-05T12:52:13.976Z,101214.84
2022-08-05T12:54:35.633Z,101198.16
2022-08-05T12:57:09.569Z,101179.91
2022-08-05T13:01:58.204Z,101204.84
2022-08-05T13:02:41.378Z,101207.91
2022-08-05T13:05:12.473Z,101231.22
2022-08-05T13:07:59.816Z,101217.50
2022-08-05T13:10:26.796Z,101128.06
2022-08-05T13:12:58.115Z,101184.81
2022-08-05T13:15:41.607Z,101215.47
2022-08-05T13:18:18.795Z,101198.50
2022-08-05T13:20:47.361Z,101153.72
2022-08-05T13:23:16.317Z,101241.25
2022-08-05T13:25:58.911Z,101154.25
2022-08-05T13:28:26.875Z,101130.41
2022-08-05T13:30:53.678Z,101209.63
2022-08-05T13:34:22.767Z,101186.25
2022-08-05T13:36:09.289Z,101116.34
2022-08-05T13:38:42.121Z,101220.25
2022-08-05T13:41:09.887Z,101128.63
2022-08-05T13:43:45.341Z,101203.31
2022-08-05T13:46:50.906Z,101233.31
2022-08-05T13:49:10.198Z,101241.88
2022-08-05T13:51:41.239Z,101216.38
2022-08-05T13:54:12.560Z,101190.50
2022-08-05T13:56:45.037Z,101208.22
2022-08-05T13:59:19.477Z,101234.63
2022-08-05T14:01:57.892Z,101203.63
2022-08-05T14:04:54.652Z,101216.31
2022-08-05T14:07:56.493Z,101092.63
2022-08-05T14:10:28.841Z,101238.59
2022-08-05T14:12:57.541Z,101207.13
2022-08-05T14:16:07.072Z,101177.34
2022-08-05T14:18:15.033Z,101211.81
2022-08-05T14:20:47.346Z,101241.50
2022-08-05T14:23:19.103Z,101211.88
2022-08-05T14:25:53.243Z,101226.00
2022-08-05T14:28:26.323Z,101213.72
2022-08-05T14:30:53.939Z,101238.72
2022-08-05T14:33:22.670Z,101198.03
2022-08-05T14:35:51.745Z,101195.38
2022-08-05T14:38:33.241Z,101133.94
2022-08-05T14:41:06.016Z,101256.81
2022-08-05T14:44:01.781Z,101252.84
2022-08-05T14:46:21.398Z,101165.88
2022-08-05T14:48:50.019Z,101155.38
2022-08-05T14:51:17.535Z,101154.94
2022-08-05T14:53:44.947Z,101198.16
2022-08-05T14:56:12.000Z,101222.38
2022-08-05T14:58:47.496Z,101199.53
2022-08-05T15:01:47.124Z,101234.06
2022-08-05T15:04:11.572Z,101198.06
2022-08-05T15:06:38.967Z,101138.97
2022-08-05T15:09:07.480Z,101146.47
2022-08-05T15:11:53.254Z,101186.09
2022-08-05T15:14:35.937Z,101215.63
2022-08-05T15:17:20.863Z,101186.00
2022-08-05T15:19:55.451Z,101264.59
2022-08-05T15:22:22.161Z,101184.56
2022-08-05T15:24:54.042Z,101212.75
2022-08-05T15:27:20.501Z,101202.03
2022-08-05T15:29:47.054Z,101203.81
2022-08-05T15:32:16.539Z,101215.75
2022-08-05T15:34:43.350Z,101262.94
2022-08-05T15:37:15.642Z,101231.03
2022-08-05T15:40:59.836Z,101282.88
2022-08-05T15:42:54.401Z,101221.59
2022-08-05T15:45:38.626Z,101224.81
2022-08-05T15:48:05.628Z,101242.97
2022-08-05T15:50:33.644Z,101201.06
2022-08-05T15:53:05.212Z,101204.38
2022-08-05T15:56:02.396Z,101310.50
2022-08-05T15:58:19.483Z,101167.56
2022-08-05T16:00:57.038Z,101119.84
2022-08-05T16:03:41.185Z,101218.31
2022-08-05T16:06:08.917Z,101208.66
2022-08-05T16:08:38.102Z,101315.28
2022-08-05T16:11:05.012Z,101252.97
2022-08-05T16:13:31.940Z,101292.81
2022-08-05T16:16:03.333Z,101289.53
2022-08-05T16:18:30.785Z,101232.06
2022-08-05T16:20:58.562Z,101243.13
2022-08-05T16:23:28.350Z,101114.63
2022-08-05T16:26:14.918Z,101248.16
2022-08-05T16:28:41.899Z,101302.41
2022-08-05T16:31:08.523Z,101206.03
2022-08-05T16:33:41.666Z,101305.47
2022-08-05T16:36:08.769Z,101311.09
2022-08-05T16:38:35.265Z,101219.84
2022-08-05T16:41:02.559Z,101303.63
2022-08-05T16:43:48.929Z,101317.31
2022-08-05T16:46:23.567Z,101347.38
2022-08-05T16:48:51.217Z,101310.69
2022-08-05T16:51:17.758Z,101262.94
2022-08-05T16:54:03.990Z,101262.44
2022-08-05T16:56:33.769Z,101353.25
2022-08-05T16:59:07.749Z,101360.66
2022-08-05T17:01:53.837Z,101267.38
2022-08-05T17:04:23.929Z,101353.34
2022-08-05T17:06:55.208Z,101351.41
2022-08-05T17:09:21.651Z,101360.19
2022-08-05T17:11:52.371Z,101351.41
2022-08-05T17:14:34.200Z,101330.09
2022-08-05T17:17:05.747Z,101383.59
2022-08-05T17:19:32.298Z,101370.81
2022-08-05T17:22:00.566Z,101374.69
2022-08-05T17:24:35.216Z,101372.00
2022-08-05T17:27:07.247Z,101274.59
2022-08-05T17:29:40.907Z,101296.28
2022-08-05T17:32:17.116Z,101388.47
2022-08-05T17:34:48.191Z,101336.28
2022-08-05T17:37:41.807Z,101388.28
2022-08-05T17:40:10.831Z,101382.81
2022-08-05T17:42:43.031Z,101316.56
2022-08-05T17:45:20.399Z,101384.09
2022-08-05T17:47:53.492Z,101377.00
2022-08-05T17:50:29.594Z,101383.59
2022-08-05T17:53:04.870Z,101362.22
2022-08-05T17:55:37.931Z,101386.66
2022-08-05T17:58:09.733Z,101394.88
2022-08-05T18:00:39.874Z,101413.97
2022-08-05T18:03:24.077Z,101426.00
2022-08-05T18:06:04.395Z,101443.22
2022-08-05T18:08:33.154Z,101421.66
2022-08-05T18:11:00.279Z,101409.06
2022-08-05T18:13:36.647Z,101427.19
2022-08-05T18:16:13.498Z,101464.25
2022-08-05T18:18:40.733Z,101445.91
2022-08-05T18:21:13.390Z,101351.03
2022-08-05T18:23:47.687Z,101464.50
2022-08-05T18:26:14.618Z,101374.50
2022-08-05T18:28:46.588Z,101412.81
2022-08-05T18:31:15.926Z,101441.88
2022-08-05T18:33:47.170Z,101483.31
2022-08-05T18:36:17.019Z,101476.66
2022-08-05T18:38:46.283Z,101466.34
2022-08-05T18:41:55.882Z,101469.53
2022-08-05T18:44:06.196Z,101452.69
2022-08-05T18:46:34.421Z,101428.84
2022-08-05T18:49:20.950Z,101481.13
2022-08-05T18:52:08.322Z,101382.66
2022-08-05T18:54:35.747Z,101484.03
2022-08-05T18:57:02.547Z,101485.13
2022-08-05T18:59:44.355Z,101431.97
2022-08-05T19:02:28.086Z,101426.31
2022-08-05T19:05:03.054Z,101513.47
2022-08-05T19:07:45.846Z,101444.25
2022-08-05T19:10:17.189Z,101532.03
2022-08-05T19:12:43.816Z,101412.13
2022-08-05T19:15:58.108Z,101437.06
2022-08-05T19:18:09.090Z,101536.38
2022-08-05T19:20:36.973Z,101505.63
2022-08-05T19:23:08.215Z,101426.34
2022-08-05T19:25:41.905Z,101508.94
2022-08-05T19:28:10.466Z,101488.63
2022-08-05T19:30:36.983Z,101503.94
2022-08-05T19:33:04.659Z,101523.91
2022-08-05T19:35:56.034Z,101555.31
2022-08-05T19:38:24.054Z,101545.63
2022-08-05T19:40:53.336Z,101478.13
2022-08-05T19:44:04.667Z,101511.75
2022-08-05T19:46:06.474Z,101507.81
2022-08-05T19:48:44.018Z,101558.63
2022-08-05T19:52:05.759Z,101534.13
2022-08-05T19:54:12.881Z,101609.06
2022-08-05T19:56:54.141Z,101531.78
2022-08-05T19:59:21.656Z,101580.06
2022-08-05T20:02:07.283Z,101541.03
2022-08-05T20:04:33.799Z,101539.59
2022-08-05T20:07:00.250Z,101507.00
2022-08-05T20:09:28.579Z,101636.72
2022-08-05T20:12:15.104Z,101559.59
2022-08-05T20:14:41.910Z,101600.63
2022-08-05T20:17:10.050Z,101579.72
2022-08-05T20:19:42.624Z,101548.16
2022-08-05T20:22:09.684Z,101554.16
2022-08-05T20:24:36.333Z,101619.19
2022-08-05T20:27:04.784Z,101604.81
2022-08-05T20:29:38.427Z,101563.31
2022-08-05T20:32:06.525Z,101575.16
2022-08-05T20:34:33.022Z,101590.97
2022-08-05T20:37:00.706Z,101636.78
2022-08-05T20:39:36.712Z,101669.09
2022-08-05T20:42:04.691Z,101603.88
2022-08-05T20:44:33.077Z,101565.31
2022-08-05T20:47:07.601Z,101671.69
2022-08-05T20:49:39.694Z,101651.06
2022-08-05T20:52:07.071Z,101612.69
2022-08-05T20:54:42.747Z,101660.59
2022-08-05T20:57:42.703Z,101650.72
2022-08-05T21:00:21.155Z,101681.19
2022-08-05T21:02:57.829Z,101595.09
2022-08-05T21:05:24.547Z,101652.44
2022-08-05T21:07:52.126Z,101665.56
2022-08-05T21:10:19.020Z,101646.03
2022-08-05T21:12:58.142Z,101599.41
2022-08-05T21:15:33.806Z,101677.78
2022-08-05T21:18:00.601Z,101694.22
2022-08-05T21:20:32.900Z,101609.38
2022-08-05T21:23:00.113Z,101701.25
2022-08-05T21:25:33.973Z,101597.09
2022-08-05T21:28:02.829Z,101707.78
2022-08-05T21:30:29.315Z,101684.72
2022-08-05T21:32:55.722Z,101579.72
2022-08-05T21:35:29.794Z,101663.66
2022-08-05T21:38:09.170Z,101698.78
2022-08-05T21:40:36.040Z,101631.03
2022-08-05T21:43:08.321Z,101681.25
2022-08-05T21:45:51.654Z,101708.75
2022-08-05T21:48:23.591Z,101674.88
2022-08-05T21:50:53.216Z,101653.88
2022-08-05T21:53:21.394Z,101685.50
2022-08-05T21:56:05.321Z,101730.44
2022-08-05T21:58:42.473Z,101733.78
2022-08-05T22:01:24.913Z,101728.03
2022-08-05T22:03:53.706Z,101637.50
2022-08-05T22:06:34.805Z,101723.47
2022-08-05T22:09:22.289Z,101622.13
2022-08-05T22:11:54.961Z,101711.97
2022-08-05T22:14:35.093Z,101741.84
2022-08-05T22:17:06.726Z,101483.13
2022-08-05T22:20:00.467Z,101642.84
2022-08-05T22:22:26.985Z,101623.16
2022-08-05T22:28:56.915Z,101625.53
2022-08-05T22:31:25.048Z,101633.84
2022-08-05T22:34:01.199Z,101776.84
2022-08-05T22:39:40.944Z,101741.47
2022-08-05T22:42:10.077Z,101619.72
2022-08-05T22:44:39.525Z,101777.69
2022-08-05T22:47:06.886Z,101660.09
2022-08-05T22:50:17.874Z,101790.34
2022-08-05T22:52:30.479Z,101738.91
2022-08-05T22:54:59.487Z,101773.28
2022-08-05T22:57:26.553Z,101667.31
2022-08-05T22:59:54.232Z,101644.69
2022-08-05T23:02:29.363Z,101692.84
2022-08-05T23:04:57.905Z,101694.81
2022-08-05T23:07:28.618Z,101733.97
2022-08-05T23:10:01.177Z,101799.56
2022-08-05T23:12:32.604Z,101775.44
2022-08-05T23:15:04.033Z,101787.09
2022-08-05T23:17:59.578Z,101619.81
2022-08-05T23:20:23.453Z,101728.75
2022-08-05T23:22:51.052Z,101700.59
2022-08-05T23:25:50.961Z,101805.56
2022-08-05T23:28:09.832Z,101797.91
2022-08-05T23:30:40.269Z,101596.00
2022-08-05T23:33:16.008Z,101795.25
2022-08-05T23:35:45.412Z,101798.19
2022-08-05T23:38:12.023Z,101763.81
2022-08-05T23:40:38.678Z,101686.59
2022-08-05T23:43:24.260Z,101781.22
2022-08-05T23:45:52.338Z,101703.53
2022-08-05T23:48:19.750Z,101807.31
2022-08-05T23:50:46.283Z,101809.75
2022-08-05T23:53:22.816Z,101803.53
2022-08-05T23:55:49.902Z,101815.53
2022-08-05T23:58:31.665Z,101841.97
